sensor_id;sensor_type;location;lat;lon;timestamp;temperature;humidity
44111;DHT22;29774;52.664;5.074;2023-03-19T00:01:54;10.40;91.10
44111;DHT22;29774;52.664;5.074;2023-03-19T00:04:20;10.40;91.10
44111;DHT22;29774;52.664;5.074;2023-03-19T00:06:46;10.40;91.20
44111;DHT22;29774;52.664;5.074;2023-03-19T00:09:12;10.40;91.20
44111;DHT22;29774;52.664;5.074;2023-03-19T00:11:37;10.40;91.20
44111;DHT22;29774;52.664;5.074;2023-03-19T00:14:04;10.40;91.20
44111;DHT22;29774;52.664;5.074;2023-03-19T00:16:29;10.40;91.20
44111;DHT22;29774;52.664;5.074;2023-03-19T00:18:55;10.40;91.20
44111;DHT22;29774;52.664;5.074;2023-03-19T00:21:22;10.40;91.20
44111;DHT22;29774;52.664;5.074;2023-03-19T00:23:47;10.40;91.20
44111;DHT22;29774;52.664;5.074;2023-03-19T00:26:13;10.40;91.20
44111;DHT22;29774;52.664;5.074;2023-03-19T00:28:39;10.40;91.20
44111;DHT22;29774;52.664;5.074;2023-03-19T00:31:14;10.40;91.20
44111;DHT22;29774;52.664;5.074;2023-03-19T00:33:41;10.40;91.30
44111;DHT22;29774;52.664;5.074;2023-03-19T00:36:08;10.40;91.30
44111;DHT22;29774;52.664;5.074;2023-03-19T00:38:34;10.40;91.30
44111;DHT22;29774;52.664;5.074;2023-03-19T00:41:01;10.40;91.30
44111;DHT22;29774;52.664;5.074;2023-03-19T00:43:26;10.40;91.30
44111;DHT22;29774;52.664;5.074;2023-03-19T00:45:52;10.40;91.40
44111;DHT22;29774;52.664;5.074;2023-03-19T00:48:18;10.50;91.40
44111;DHT22;29774;52.664;5.074;2023-03-19T00:50:44;10.50;91.30
44111;DHT22;29774;52.664;5.074;2023-03-19T00:53:10;10.50;91.30
44111;DHT22;29774;52.664;5.074;2023-03-19T00:55:36;10.50;91.40
44111;DHT22;29774;52.664;5.074;2023-03-19T00:58:02;10.50;91.50
44111;DHT22;29774;52.664;5.074;2023-03-19T01:00:27;10.50;91.50
44111;DHT22;29774;52.664;5.074;2023-03-19T01:02:53;10.50;91.60
44111;DHT22;29774;52.664;5.074;2023-03-19T01:05:19;10.50;91.70
44111;DHT22;29774;52.664;5.074;2023-03-19T01:07:44;10.50;91.70
44111;DHT22;29774;52.664;5.074;2023-03-19T01:10:10;10.50;91.70
44111;DHT22;29774;52.664;5.074;2023-03-19T01:12:36;10.50;91.80
44111;DHT22;29774;52.664;5.074;2023-03-19T01:15:02;10.50;91.80
44111;DHT22;29774;52.664;5.074;2023-03-19T01:17:28;10.50;91.80
44111;DHT22;29774;52.664;5.074;2023-03-19T01:19:54;10.50;91.90
44111;DHT22;29774;52.664;5.074;2023-03-19T01:22:20;10.50;91.90
44111;DHT22;29774;52.664;5.074;2023-03-19T01:24:46;10.50;91.90
44111;DHT22;29774;52.664;5.074;2023-03-19T01:27:12;10.40;91.90
44111;DHT22;29774;52.664;5.074;2023-03-19T01:29:37;10.40;91.90
44111;DHT22;29774;52.664;5.074;2023-03-19T01:32:03;10.50;91.90
44111;DHT22;29774;52.664;5.074;2023-03-19T01:34:29;10.40;91.90
44111;DHT22;29774;52.664;5.074;2023-03-19T01:36:55;10.40;91.90
44111;DHT22;29774;52.664;5.074;2023-03-19T01:39:20;10.40;91.90
44111;DHT22;29774;52.664;5.074;2023-03-19T01:41:46;10.30;91.80
44111;DHT22;29774;52.664;5.074;2023-03-19T01:44:26;10.30;91.80
44111;DHT22;29774;52.664;5.074;2023-03-19T01:46:52;10.30;91.70
44111;DHT22;29774;52.664;5.074;2023-03-19T01:49:20;10.30;91.70
44111;DHT22;29774;52.664;5.074;2023-03-19T01:51:47;10.30;91.70
44111;DHT22;29774;52.664;5.074;2023-03-19T01:54:15;10.30;91.70
44111;DHT22;29774;52.664;5.074;2023-03-19T01:56:43;10.40;91.80
44111;DHT22;29774;52.664;5.074;2023-03-19T01:59:21;10.30;91.80
44111;DHT22;29774;52.664;5.074;2023-03-19T02:04:35;10.30;91.90
44111;DHT22;29774;52.664;5.074;2023-03-19T02:07:03;10.30;91.90
44111;DHT22;29774;52.664;5.074;2023-03-19T02:09:31;10.30;91.90
44111;DHT22;29774;52.664;5.074;2023-03-19T02:11:57;10.30;91.90
44111;DHT22;29774;52.664;5.074;2023-03-19T02:14:23;10.30;92.00
44111;DHT22;29774;52.664;5.074;2023-03-19T02:16:49;10.30;91.90
44111;DHT22;29774;52.664;5.074;2023-03-19T02:22:02;10.30;91.90
44111;DHT22;29774;52.664;5.074;2023-03-19T02:24:34;10.20;91.80
44111;DHT22;29774;52.664;5.074;2023-03-19T02:27:02;10.20;91.70
44111;DHT22;29774;52.664;5.074;2023-03-19T02:29:28;10.20;91.60
44111;DHT22;29774;52.664;5.074;2023-03-19T02:31:53;10.20;91.50
44111;DHT22;29774;52.664;5.074;2023-03-19T02:36:49;10.10;91.20
44111;DHT22;29774;52.664;5.074;2023-03-19T02:39:48;10.10;91.10
44111;DHT22;29774;52.664;5.074;2023-03-19T02:42:15;10.00;90.90
44111;DHT22;29774;52.664;5.074;2023-03-19T02:44:41;9.90;90.60
44111;DHT22;29774;52.664;5.074;2023-03-19T02:47:07;9.80;90.40
44111;DHT22;29774;52.664;5.074;2023-03-19T02:49:33;9.90;90.20
44111;DHT22;29774;52.664;5.074;2023-03-19T02:51:58;9.70;89.90
44111;DHT22;29774;52.664;5.074;2023-03-19T02:54:25;9.70;89.80
44111;DHT22;29774;52.664;5.074;2023-03-19T02:56:50;9.60;89.70
44111;DHT22;29774;52.664;5.074;2023-03-19T02:59:17;9.50;89.60
44111;DHT22;29774;52.664;5.074;2023-03-19T03:01:42;9.50;89.50
44111;DHT22;29774;52.664;5.074;2023-03-19T03:04:08;9.40;89.40
44111;DHT22;29774;52.664;5.074;2023-03-19T03:06:34;9.40;89.50
44111;DHT22;29774;52.664;5.074;2023-03-19T03:09:00;9.30;89.40
44111;DHT22;29774;52.664;5.074;2023-03-19T03:11:25;9.20;89.40
44111;DHT22;29774;52.664;5.074;2023-03-19T03:13:51;9.20;89.40
44111;DHT22;29774;52.664;5.074;2023-03-19T03:16:17;9.10;89.40
44111;DHT22;29774;52.664;5.074;2023-03-19T03:18:42;9.10;89.40
44111;DHT22;29774;52.664;5.074;2023-03-19T03:21:08;9.00;89.40
44111;DHT22;29774;52.664;5.074;2023-03-19T03:23:35;9.00;89.40
44111;DHT22;29774;52.664;5.074;2023-03-19T03:26:01;9.00;89.40
44111;DHT22;29774;52.664;5.074;2023-03-19T03:28:27;8.90;89.40
44111;DHT22;29774;52.664;5.074;2023-03-19T03:30:58;8.90;89.40
44111;DHT22;29774;52.664;5.074;2023-03-19T03:33:25;8.90;89.40
44111;DHT22;29774;52.664;5.074;2023-03-19T03:35:51;9.00;89.40
44111;DHT22;29774;52.664;5.074;2023-03-19T03:38:17;8.90;89.30
44111;DHT22;29774;52.664;5.074;2023-03-19T03:40:42;8.90;89.30
44111;DHT22;29774;52.664;5.074;2023-03-19T03:43:08;8.80;89.30
44111;DHT22;29774;52.664;5.074;2023-03-19T03:45:35;8.80;89.20
44111;DHT22;29774;52.664;5.074;2023-03-19T03:48:01;8.70;89.10
44111;DHT22;29774;52.664;5.074;2023-03-19T03:50:27;8.70;89.20
44111;DHT22;29774;52.664;5.074;2023-03-19T03:52:52;8.70;89.20
44111;DHT22;29774;52.664;5.074;2023-03-19T03:55:18;8.60;89.20
44111;DHT22;29774;52.664;5.074;2023-03-19T03:57:44;8.60;89.30
44111;DHT22;29774;52.664;5.074;2023-03-19T04:00:10;8.60;89.20
44111;DHT22;29774;52.664;5.074;2023-03-19T04:02:36;8.50;89.30
44111;DHT22;29774;52.664;5.074;2023-03-19T04:05:02;8.40;89.20
44111;DHT22;29774;52.664;5.074;2023-03-19T04:07:28;8.40;89.10
44111;DHT22;29774;52.664;5.074;2023-03-19T04:09:56;8.30;89.20
44111;DHT22;29774;52.664;5.074;2023-03-19T04:12:21;8.40;89.40
44111;DHT22;29774;52.664;5.074;2023-03-19T04:14:47;8.40;89.40
44111;DHT22;29774;52.664;5.074;2023-03-19T04:17:12;8.40;89.30
44111;DHT22;29774;52.664;5.074;2023-03-19T04:19:38;8.30;89.40
44111;DHT22;29774;52.664;5.074;2023-03-19T04:22:04;8.20;89.40
44111;DHT22;29774;52.664;5.074;2023-03-19T04:24:32;8.20;89.40
44111;DHT22;29774;52.664;5.074;2023-03-19T04:26:57;8.10;89.40
44111;DHT22;29774;52.664;5.074;2023-03-19T04:29:23;8.10;89.40
44111;DHT22;29774;52.664;5.074;2023-03-19T04:31:49;8.10;89.40
44111;DHT22;29774;52.664;5.074;2023-03-19T04:34:15;8.00;89.40
44111;DHT22;29774;52.664;5.074;2023-03-19T04:36:42;8.00;89.40
44111;DHT22;29774;52.664;5.074;2023-03-19T04:39:07;7.90;89.40
44111;DHT22;29774;52.664;5.074;2023-03-19T04:41:33;7.90;89.40
44111;DHT22;29774;52.664;5.074;2023-03-19T04:43:59;7.80;89.40
44111;DHT22;29774;52.664;5.074;2023-03-19T04:46:25;7.80;89.40
44111;DHT22;29774;52.664;5.074;2023-03-19T04:48:51;7.70;89.40
44111;DHT22;29774;52.664;5.074;2023-03-19T04:51:16;7.70;89.40
44111;DHT22;29774;52.664;5.074;2023-03-19T04:53:42;7.70;89.40
44111;DHT22;29774;52.664;5.074;2023-03-19T04:56:08;7.70;89.50
44111;DHT22;29774;52.664;5.074;2023-03-19T04:58:34;7.70;89.60
44111;DHT22;29774;52.664;5.074;2023-03-19T05:01:00;7.70;89.70
44111;DHT22;29774;52.664;5.074;2023-03-19T05:03:25;7.70;89.80
44111;DHT22;29774;52.664;5.074;2023-03-19T05:05:53;7.70;89.90
44111;DHT22;29774;52.664;5.074;2023-03-19T05:08:19;7.80;90.20
44111;DHT22;29774;52.664;5.074;2023-03-19T05:10:45;7.90;90.40
44111;DHT22;29774;52.664;5.074;2023-03-19T05:13:10;7.90;90.50
44111;DHT22;29774;52.664;5.074;2023-03-19T05:15:36;8.00;90.70
44111;DHT22;29774;52.664;5.074;2023-03-19T05:18:03;8.10;90.90
44111;DHT22;29774;52.664;5.074;2023-03-19T05:20:28;8.10;90.90
44111;DHT22;29774;52.664;5.074;2023-03-19T05:22:54;8.10;91.10
44111;DHT22;29774;52.664;5.074;2023-03-19T05:25:20;8.20;91.20
44111;DHT22;29774;52.664;5.074;2023-03-19T05:27:45;8.20;91.20
44111;DHT22;29774;52.664;5.074;2023-03-19T05:30:11;8.20;91.30
44111;DHT22;29774;52.664;5.074;2023-03-19T05:32:37;8.30;91.40
44111;DHT22;29774;52.664;5.074;2023-03-19T05:35:05;8.20;91.40
44111;DHT22;29774;52.664;5.074;2023-03-19T05:37:31;8.40;91.40
44111;DHT22;29774;52.664;5.074;2023-03-19T05:39:56;8.40;91.50
44111;DHT22;29774;52.664;5.074;2023-03-19T05:42:22;8.40;91.40
44111;DHT22;29774;52.664;5.074;2023-03-19T05:44:47;8.50;91.40
44111;DHT22;29774;52.664;5.074;2023-03-19T05:47:13;8.50;91.40
44111;DHT22;29774;52.664;5.074;2023-03-19T05:49:39;8.40;91.40
44111;DHT22;29774;52.664;5.074;2023-03-19T05:52:05;8.40;91.50
44111;DHT22;29774;52.664;5.074;2023-03-19T05:54:30;8.50;91.50
44111;DHT22;29774;52.664;5.074;2023-03-19T05:56:56;8.50;91.50
44111;DHT22;29774;52.664;5.074;2023-03-19T05:59:21;8.50;91.60
44111;DHT22;29774;52.664;5.074;2023-03-19T06:01:47;8.50;91.60
44111;DHT22;29774;52.664;5.074;2023-03-19T06:04:13;8.50;91.60
44111;DHT22;29774;52.664;5.074;2023-03-19T06:06:38;8.50;91.70
44111;DHT22;29774;52.664;5.074;2023-03-19T06:09:04;8.50;91.70
44111;DHT22;29774;52.664;5.074;2023-03-19T06:11:30;8.50;91.70
44111;DHT22;29774;52.664;5.074;2023-03-19T06:13:56;8.60;91.80
44111;DHT22;29774;52.664;5.074;2023-03-19T06:16:21;8.60;91.80
44111;DHT22;29774;52.664;5.074;2023-03-19T06:18:47;8.60;91.90
44111;DHT22;29774;52.664;5.074;2023-03-19T06:21:13;8.60;91.90
44111;DHT22;29774;52.664;5.074;2023-03-19T06:23:38;8.70;91.80
44111;DHT22;29774;52.664;5.074;2023-03-19T06:26:04;8.70;91.80
44111;DHT22;29774;52.664;5.074;2023-03-19T06:28:31;8.70;91.70
44111;DHT22;29774;52.664;5.074;2023-03-19T06:30:57;8.70;91.70
44111;DHT22;29774;52.664;5.074;2023-03-19T06:33:23;8.70;91.70
44111;DHT22;29774;52.664;5.074;2023-03-19T06:35:52;8.70;91.70
44111;DHT22;29774;52.664;5.074;2023-03-19T06:38:17;8.70;91.70
44111;DHT22;29774;52.664;5.074;2023-03-19T06:40:43;8.70;91.70
44111;DHT22;29774;52.664;5.074;2023-03-19T06:43:09;8.70;91.80
44111;DHT22;29774;52.664;5.074;2023-03-19T06:45:34;8.70;91.80
44111;DHT22;29774;52.664;5.074;2023-03-19T06:48:00;8.70;91.80
44111;DHT22;29774;52.664;5.074;2023-03-19T06:50:26;8.70;91.80
44111;DHT22;29774;52.664;5.074;2023-03-19T06:52:51;8.70;91.80
44111;DHT22;29774;52.664;5.074;2023-03-19T06:55:17;8.70;91.80
44111;DHT22;29774;52.664;5.074;2023-03-19T06:57:47;8.70;91.80
44111;DHT22;29774;52.664;5.074;2023-03-19T07:00:14;8.70;91.80
44111;DHT22;29774;52.664;5.074;2023-03-19T07:02:40;8.70;91.80
44111;DHT22;29774;52.664;5.074;2023-03-19T07:05:07;8.70;91.70
44111;DHT22;29774;52.664;5.074;2023-03-19T07:07:32;8.70;91.70
44111;DHT22;29774;52.664;5.074;2023-03-19T07:09:58;8.70;91.70
44111;DHT22;29774;52.664;5.074;2023-03-19T07:12:24;8.60;91.70
44111;DHT22;29774;52.664;5.074;2023-03-19T07:14:52;8.60;91.70
44111;DHT22;29774;52.664;5.074;2023-03-19T07:17:18;8.60;91.70
44111;DHT22;29774;52.664;5.074;2023-03-19T07:19:44;8.60;91.80
44111;DHT22;29774;52.664;5.074;2023-03-19T07:22:09;8.60;91.80
44111;DHT22;29774;52.664;5.074;2023-03-19T07:24:35;8.70;91.70
44111;DHT22;29774;52.664;5.074;2023-03-19T07:27:01;8.70;91.70
44111;DHT22;29774;52.664;5.074;2023-03-19T07:29:27;8.70;91.70
44111;DHT22;29774;52.664;5.074;2023-03-19T07:31:53;8.70;91.70
44111;DHT22;29774;52.664;5.074;2023-03-19T07:34:18;8.70;91.70
44111;DHT22;29774;52.664;5.074;2023-03-19T07:36:44;8.70;91.70
44111;DHT22;29774;52.664;5.074;2023-03-19T07:39:09;8.70;91.70
44111;DHT22;29774;52.664;5.074;2023-03-19T07:41:35;8.70;91.70
44111;DHT22;29774;52.664;5.074;2023-03-19T07:44:01;8.80;91.80
44111;DHT22;29774;52.664;5.074;2023-03-19T07:46:26;8.90;91.80
44111;DHT22;29774;52.664;5.074;2023-03-19T07:48:52;8.90;91.80
44111;DHT22;29774;52.664;5.074;2023-03-19T07:51:18;9.00;91.90
44111;DHT22;29774;52.664;5.074;2023-03-19T07:53:43;9.00;92.00
44111;DHT22;29774;52.664;5.074;2023-03-19T07:56:10;9.10;92.10
44111;DHT22;29774;52.664;5.074;2023-03-19T07:58:36;9.20;92.00
44111;DHT22;29774;52.664;5.074;2023-03-19T08:01:02;9.10;92.10
44111;DHT22;29774;52.664;5.074;2023-03-19T08:03:27;9.10;92.20
44111;DHT22;29774;52.664;5.074;2023-03-19T08:05:53;9.20;92.30
44111;DHT22;29774;52.664;5.074;2023-03-19T08:08:19;9.20;92.30
44111;DHT22;29774;52.664;5.074;2023-03-19T08:10:44;9.30;92.40
44111;DHT22;29774;52.664;5.074;2023-03-19T08:13:12;9.30;92.50
44111;DHT22;29774;52.664;5.074;2023-03-19T08:15:38;9.40;92.50
44111;DHT22;29774;52.664;5.074;2023-03-19T08:18:05;9.40;92.60
44111;DHT22;29774;52.664;5.074;2023-03-19T08:20:31;9.40;92.60
44111;DHT22;29774;52.664;5.074;2023-03-19T08:22:57;9.40;92.70
44111;DHT22;29774;52.664;5.074;2023-03-19T08:25:23;9.50;92.70
44111;DHT22;29774;52.664;5.074;2023-03-19T08:27:49;9.60;92.80
44111;DHT22;29774;52.664;5.074;2023-03-19T08:30:15;9.70;92.90
44111;DHT22;29774;52.664;5.074;2023-03-19T08:32:42;9.70;92.90
44111;DHT22;29774;52.664;5.074;2023-03-19T08:35:10;9.70;92.90
44111;DHT22;29774;52.664;5.074;2023-03-19T08:37:36;9.70;92.90
44111;DHT22;29774;52.664;5.074;2023-03-19T08:40:02;9.70;92.90
44111;DHT22;29774;52.664;5.074;2023-03-19T08:42:29;9.70;92.90
44111;DHT22;29774;52.664;5.074;2023-03-19T08:44:54;9.70;92.90
44111;DHT22;29774;52.664;5.074;2023-03-19T08:47:20;9.70;92.90
44111;DHT22;29774;52.664;5.074;2023-03-19T08:49:49;9.80;92.80
44111;DHT22;29774;52.664;5.074;2023-03-19T08:52:15;9.80;92.70
44111;DHT22;29774;52.664;5.074;2023-03-19T08:54:41;9.80;92.50
44111;DHT22;29774;52.664;5.074;2023-03-19T08:57:06;9.90;92.40
44111;DHT22;29774;52.664;5.074;2023-03-19T08:59:32;9.90;92.20
44111;DHT22;29774;52.664;5.074;2023-03-19T09:01:57;10.00;92.00
44111;DHT22;29774;52.664;5.074;2023-03-19T09:04:23;10.10;91.80
44111;DHT22;29774;52.664;5.074;2023-03-19T09:06:49;10.10;91.60
44111;DHT22;29774;52.664;5.074;2023-03-19T09:09:20;10.10;91.40
44111;DHT22;29774;52.664;5.074;2023-03-19T09:11:46;10.20;91.10
44111;DHT22;29774;52.664;5.074;2023-03-19T09:14:13;10.20;90.80
44111;DHT22;29774;52.664;5.074;2023-03-19T09:16:41;10.20;90.70
44111;DHT22;29774;52.664;5.074;2023-03-19T09:19:06;10.20;90.50
44111;DHT22;29774;52.664;5.074;2023-03-19T09:21:32;10.30;90.30
44111;DHT22;29774;52.664;5.074;2023-03-19T09:23:58;10.30;90.10
44111;DHT22;29774;52.664;5.074;2023-03-19T09:26:24;10.40;90.00
44111;DHT22;29774;52.664;5.074;2023-03-19T09:28:49;10.40;89.90
44111;DHT22;29774;52.664;5.074;2023-03-19T09:31:15;10.50;89.80
44111;DHT22;29774;52.664;5.074;2023-03-19T09:33:41;10.50;89.60
44111;DHT22;29774;52.664;5.074;2023-03-19T09:36:07;10.50;89.50
44111;DHT22;29774;52.664;5.074;2023-03-19T09:38:32;10.60;89.50
44111;DHT22;29774;52.664;5.074;2023-03-19T09:49:23;10.80;89.50
44111;DHT22;29774;52.664;5.074;2023-03-19T09:54:46;10.80;89.10
44111;DHT22;29774;52.664;5.074;2023-03-19T09:57:14;10.90;89.10
44111;DHT22;29774;52.664;5.074;2023-03-19T09:59:41;10.90;89.10
44111;DHT22;29774;52.664;5.074;2023-03-19T10:07:37;11.00;89.00
44111;DHT22;29774;52.664;5.074;2023-03-19T10:15:44;11.10;89.10
44111;DHT22;29774;52.664;5.074;2023-03-19T10:18:13;11.10;89.10
44111;DHT22;29774;52.664;5.074;2023-03-19T10:21:03;11.20;89.10
44111;DHT22;29774;52.664;5.074;2023-03-19T10:26:16;11.30;88.90
44111;DHT22;29774;52.664;5.074;2023-03-19T10:28:44;11.40;88.70
44111;DHT22;29774;52.664;5.074;2023-03-19T10:36:36;11.60;88.50
44111;DHT22;29774;52.664;5.074;2023-03-19T10:39:02;11.60;88.30
44111;DHT22;29774;52.664;5.074;2023-03-19T10:41:40;11.60;87.90
44111;DHT22;29774;52.664;5.074;2023-03-19T10:46:50;11.60;87.80
44111;DHT22;29774;52.664;5.074;2023-03-19T10:49:15;11.60;87.70
44111;DHT22;29774;52.664;5.074;2023-03-19T10:51:45;11.60;87.70
44111;DHT22;29774;52.664;5.074;2023-03-19T10:54:24;11.60;87.70
44111;DHT22;29774;52.664;5.074;2023-03-19T10:56:54;11.60;87.70
44111;DHT22;29774;52.664;5.074;2023-03-19T10:59:30;11.50;87.70
44111;DHT22;29774;52.664;5.074;2023-03-19T11:01:59;11.50;87.60
44111;DHT22;29774;52.664;5.074;2023-03-19T11:04:26;11.50;87.60
44111;DHT22;29774;52.664;5.074;2023-03-19T11:07:04;11.50;87.70
44111;DHT22;29774;52.664;5.074;2023-03-19T11:09:35;11.50;87.70
44111;DHT22;29774;52.664;5.074;2023-03-19T11:14:51;11.50;87.70
44111;DHT22;29774;52.664;5.074;2023-03-19T11:19:55;11.40;87.80
44111;DHT22;29774;52.664;5.074;2023-03-19T11:22:23;11.40;87.90
44111;DHT22;29774;52.664;5.074;2023-03-19T11:24:59;11.40;87.90
44111;DHT22;29774;52.664;5.074;2023-03-19T11:27:30;11.40;88.10
44111;DHT22;29774;52.664;5.074;2023-03-19T11:29:56;11.40;88.10
44111;DHT22;29774;52.664;5.074;2023-03-19T11:35:33;11.40;88.00
44111;DHT22;29774;52.664;5.074;2023-03-19T11:38:01;11.50;88.00
44111;DHT22;29774;52.664;5.074;2023-03-19T11:40:50;11.60;87.90
44111;DHT22;29774;52.664;5.074;2023-03-19T11:43:32;11.70;87.90
44111;DHT22;29774;52.664;5.074;2023-03-19T11:46:15;11.70;87.30
44111;DHT22;29774;52.664;5.074;2023-03-19T11:51:25;11.80;86.90
44111;DHT22;29774;52.664;5.074;2023-03-19T11:56:47;11.90;86.80
44111;DHT22;29774;52.664;5.074;2023-03-19T11:59:31;11.90;86.70
44111;DHT22;29774;52.664;5.074;2023-03-19T12:11:16;11.90;86.30
44111;DHT22;29774;52.664;5.074;2023-03-19T12:13:56;11.90;86.30
44111;DHT22;29774;52.664;5.074;2023-03-19T12:16:44;11.80;86.00
44111;DHT22;29774;52.664;5.074;2023-03-19T12:25:23;11.80;86.30
44111;DHT22;29774;52.664;5.074;2023-03-19T12:30:40;11.80;86.10
44111;DHT22;29774;52.664;5.074;2023-03-19T12:33:35;11.80;86.20
44111;DHT22;29774;52.664;5.074;2023-03-19T12:36:07;11.90;86.20
44111;DHT22;29774;52.664;5.074;2023-03-19T12:38:48;11.80;85.90
44111;DHT22;29774;52.664;5.074;2023-03-19T12:41:38;11.90;85.70
44111;DHT22;29774;52.664;5.074;2023-03-19T12:44:20;11.90;85.60
44111;DHT22;29774;52.664;5.074;2023-03-19T12:47:06;11.90;85.50
44111;DHT22;29774;52.664;5.074;2023-03-19T12:49:57;12.00;85.40
44111;DHT22;29774;52.664;5.074;2023-03-19T12:55:01;12.00;85.70
44111;DHT22;29774;52.664;5.074;2023-03-19T13:00:18;11.90;85.40
44111;DHT22;29774;52.664;5.074;2023-03-19T13:06:05;11.90;85.50
44111;DHT22;29774;52.664;5.074;2023-03-19T13:08:51;11.90;85.70
44111;DHT22;29774;52.664;5.074;2023-03-19T13:14:00;11.90;85.60
44111;DHT22;29774;52.664;5.074;2023-03-19T13:16:45;11.80;85.50
44111;DHT22;29774;52.664;5.074;2023-03-19T13:21:44;11.90;85.40
44111;DHT22;29774;52.664;5.074;2023-03-19T13:24:33;11.80;85.30
44111;DHT22;29774;52.664;5.074;2023-03-19T13:27:00;11.80;85.40
44111;DHT22;29774;52.664;5.074;2023-03-19T13:29:30;11.80;85.30
44111;DHT22;29774;52.664;5.074;2023-03-19T13:32:05;11.80;85.30
44111;DHT22;29774;52.664;5.074;2023-03-19T13:34:36;11.90;85.10
44111;DHT22;29774;52.664;5.074;2023-03-19T13:37:11;11.90;85.30
44111;DHT22;29774;52.664;5.074;2023-03-19T13:39:38;12.00;85.40
44111;DHT22;29774;52.664;5.074;2023-03-19T13:45:32;12.00;84.80
44111;DHT22;29774;52.664;5.074;2023-03-19T13:47:50;12.10;84.80
44111;DHT22;29774;52.664;5.074;2023-03-19T13:55:31;12.00;84.60
44111;DHT22;29774;52.664;5.074;2023-03-19T14:05:51;12.00;84.10
44111;DHT22;29774;52.664;5.074;2023-03-19T14:08:25;12.00;84.10
44111;DHT22;29774;52.664;5.074;2023-03-19T14:10:56;11.90;84.00
44111;DHT22;29774;52.664;5.074;2023-03-19T14:13:53;11.90;83.80
44111;DHT22;29774;52.664;5.074;2023-03-19T14:16:23;11.80;83.80
44111;DHT22;29774;52.664;5.074;2023-03-19T14:18:55;11.90;84.00
44111;DHT22;29774;52.664;5.074;2023-03-19T14:24:35;11.80;83.80
44111;DHT22;29774;52.664;5.074;2023-03-19T14:27:03;11.80;83.90
44111;DHT22;29774;52.664;5.074;2023-03-19T14:29:41;11.80;83.90
44111;DHT22;29774;52.664;5.074;2023-03-19T14:32:10;11.80;84.00
44111;DHT22;29774;52.664;5.074;2023-03-19T14:34:39;11.80;84.20
44111;DHT22;29774;52.664;5.074;2023-03-19T14:37:25;11.90;84.10
44111;DHT22;29774;52.664;5.074;2023-03-19T14:40:11;12.00;83.50
44111;DHT22;29774;52.664;5.074;2023-03-19T14:48:19;12.00;83.80
44111;DHT22;29774;52.664;5.074;2023-03-19T14:56:13;12.00;83.70
44111;DHT22;29774;52.664;5.074;2023-03-19T14:58:53;12.00;83.80
44111;DHT22;29774;52.664;5.074;2023-03-19T15:01:20;11.90;83.70
44111;DHT22;29774;52.664;5.074;2023-03-19T15:03:56;11.90;83.90
44111;DHT22;29774;52.664;5.074;2023-03-19T15:06:23;11.80;84.00
44111;DHT22;29774;52.664;5.074;2023-03-19T15:08:50;11.80;84.40
44111;DHT22;29774;52.664;5.074;2023-03-19T15:19:28;12.10;82.80
44111;DHT22;29774;52.664;5.074;2023-03-19T15:22:14;12.20;83.20
44111;DHT22;29774;52.664;5.074;2023-03-19T15:24:43;12.00;83.00
44111;DHT22;29774;52.664;5.074;2023-03-19T15:27:25;11.80;83.20
44111;DHT22;29774;52.664;5.074;2023-03-19T15:29:52;11.60;83.40
44111;DHT22;29774;52.664;5.074;2023-03-19T15:32:38;11.70;83.60
44111;DHT22;29774;52.664;5.074;2023-03-19T15:35:07;11.50;83.70
44111;DHT22;29774;52.664;5.074;2023-03-19T15:37:40;11.40;84.20
44111;DHT22;29774;52.664;5.074;2023-03-19T15:40:14;11.40;84.20
44111;DHT22;29774;52.664;5.074;2023-03-19T15:42:41;11.30;84.20
44111;DHT22;29774;52.664;5.074;2023-03-19T15:45:10;11.30;84.20
44111;DHT22;29774;52.664;5.074;2023-03-19T15:47:48;11.30;84.30
44111;DHT22;29774;52.664;5.074;2023-03-19T15:50:18;11.30;84.30
44111;DHT22;29774;52.664;5.074;2023-03-19T15:52:49;11.30;84.00
44111;DHT22;29774;52.664;5.074;2023-03-19T15:55:17;11.20;84.00
44111;DHT22;29774;52.664;5.074;2023-03-19T15:57:47;11.20;84.20
44111;DHT22;29774;52.664;5.074;2023-03-19T16:00:13;11.20;84.50
44111;DHT22;29774;52.664;5.074;2023-03-19T16:02:41;11.20;84.60
44111;DHT22;29774;52.664;5.074;2023-03-19T16:07:57;11.20;84.60
44111;DHT22;29774;52.664;5.074;2023-03-19T16:10:40;11.20;84.50
44111;DHT22;29774;52.664;5.074;2023-03-19T16:13:29;11.20;84.70
44111;DHT22;29774;52.664;5.074;2023-03-19T16:16:27;11.20;84.70
44111;DHT22;29774;52.664;5.074;2023-03-19T16:18:54;11.10;84.80
44111;DHT22;29774;52.664;5.074;2023-03-19T16:21:36;11.10;84.50
44111;DHT22;29774;52.664;5.074;2023-03-19T16:24:24;11.10;84.60
44111;DHT22;29774;52.664;5.074;2023-03-19T16:26:56;11.00;84.60
44111;DHT22;29774;52.664;5.074;2023-03-19T16:29:33;11.00;84.50
44111;DHT22;29774;52.664;5.074;2023-03-19T16:32:15;11.00;84.60
44111;DHT22;29774;52.664;5.074;2023-03-19T16:37:44;11.00;84.80
44111;DHT22;29774;52.664;5.074;2023-03-19T16:42:44;10.90;84.90
44111;DHT22;29774;52.664;5.074;2023-03-19T16:47:39;10.80;85.20
44111;DHT22;29774;52.664;5.074;2023-03-19T16:50:05;10.70;85.40
44111;DHT22;29774;52.664;5.074;2023-03-19T16:52:31;10.70;85.50
44111;DHT22;29774;52.664;5.074;2023-03-19T16:54:58;10.70;85.40
44111;DHT22;29774;52.664;5.074;2023-03-19T16:57:24;10.70;85.50
44111;DHT22;29774;52.664;5.074;2023-03-19T16:59:50;10.50;85.40
44111;DHT22;29774;52.664;5.074;2023-03-19T17:02:16;10.50;85.50
44111;DHT22;29774;52.664;5.074;2023-03-19T17:04:43;10.50;85.50
44111;DHT22;29774;52.664;5.074;2023-03-19T17:07:09;10.40;85.60
44111;DHT22;29774;52.664;5.074;2023-03-19T17:09:35;10.30;85.80
44111;DHT22;29774;52.664;5.074;2023-03-19T17:12:01;10.30;85.90
44111;DHT22;29774;52.664;5.074;2023-03-19T17:14:28;10.20;85.80
44111;DHT22;29774;52.664;5.074;2023-03-19T17:16:54;10.20;85.80
44111;DHT22;29774;52.664;5.074;2023-03-19T17:19:23;10.20;85.70
44111;DHT22;29774;52.664;5.074;2023-03-19T17:21:54;10.10;85.60
44111;DHT22;29774;52.664;5.074;2023-03-19T17:24:31;10.10;85.50
44111;DHT22;29774;52.664;5.074;2023-03-19T17:27:00;9.90;85.60
44111;DHT22;29774;52.664;5.074;2023-03-19T17:29:26;9.90;85.80
44111;DHT22;29774;52.664;5.074;2023-03-19T17:31:53;9.80;85.70
44111;DHT22;29774;52.664;5.074;2023-03-19T17:34:22;9.80;85.80
44111;DHT22;29774;52.664;5.074;2023-03-19T17:36:51;9.70;85.80
44111;DHT22;29774;52.664;5.074;2023-03-19T17:39:18;9.70;85.80
44111;DHT22;29774;52.664;5.074;2023-03-19T17:41:44;9.70;85.80
44111;DHT22;29774;52.664;5.074;2023-03-19T17:44:10;9.70;85.70
44111;DHT22;29774;52.664;5.074;2023-03-19T17:46:47;9.60;85.80
44111;DHT22;29774;52.664;5.074;2023-03-19T17:49:26;9.60;85.90
44111;DHT22;29774;52.664;5.074;2023-03-19T17:51:54;9.50;85.90
44111;DHT22;29774;52.664;5.074;2023-03-19T17:54:20;9.50;85.90
44111;DHT22;29774;52.664;5.074;2023-03-19T17:56:46;9.50;86.00
44111;DHT22;29774;52.664;5.074;2023-03-19T17:59:12;9.50;86.20
44111;DHT22;29774;52.664;5.074;2023-03-19T18:01:40;9.50;86.20
44111;DHT22;29774;52.664;5.074;2023-03-19T18:04:13;9.50;86.20